Time;durP1;ratioP1;P1;durP2;ratioP2;P2;SDS_P1;SDS_P2;PMS_P1;PMS_P2;Temp;Humidity;BMP_temperature;BMP_pressure;BME280_temperature;BME280_humidity;BME280_pressure;Samples;Min_cycle;Max_cycle;Signal;HPM_P1;HPM_P2
2023/08/01 00:01:47;;;;;;;8.18;2.83;;;;;;;16.82;100.00;99917.53;5047362;28;20094;-67
2023/08/01 00:04:12;;;;;;;11.00;3.38;;;;;;;16.82;100.00;99919.34;5048204;28;20025;-68
2023/08/01 00:06:38;;;;;;;12.40;3.00;;;;;;;16.83;100.00;99919.22;5047396;28;20503;-68
2023/08/01 00:09:03;;;;;;;10.52;3.30;;;;;;;16.84;100.00;99915.59;5047280;28;20433;-67
2023/08/01 00:11:28;;;;;;;10.32;3.10;;;;;;;16.78;100.00;99913.41;5047261;28;20025;-67
2023/08/01 00:13:54;;;;;;;10.30;3.65;;;;;;;16.83;100.00;99907.72;5047833;28;20021;-64
2023/08/01 00:16:19;;;;;;;10.10;3.30;;;;;;;16.80;100.00;99906.16;5047739;28;20040;-69
2023/08/01 00:18:44;;;;;;;11.93;3.70;;;;;;;16.77;100.00;99906.38;5047185;28;20049;-69
2023/08/01 00:21:11;;;;;;;12.73;3.22;;;;;;;16.82;100.00;99909.53;5047704;28;20025;-65
2023/08/01 00:23:36;;;;;;;14.20;3.78;;;;;;;16.83;100.00;99899.75;5044301;28;20100;-68
2023/08/01 00:26:02;;;;;;;14.98;3.53;;;;;;;16.90;100.00;99891.19;5047893;28;20109;-69
2023/08/01 00:28:27;;;;;;;9.48;3.58;;;;;;;16.88;100.00;99881.63;5047181;28;20025;-68
2023/08/01 00:31:02;;;;;;;12.60;3.40;;;;;;;16.86;100.00;99883.56;5048414;28;20473;-63
2023/08/01 00:33:27;;;;;;;11.73;3.42;;;;;;;16.82;100.00;99879.44;5047183;28;20398;-66
2023/08/01 00:35:53;;;;;;;10.10;3.33;;;;;;;16.78;100.00;99870.84;5047306;28;20082;-68
2023/08/01 00:38:19;;;;;;;12.10;3.42;;;;;;;16.71;100.00;99861.63;5047177;28;20021;-68
2023/08/01 00:40:44;;;;;;;8.25;3.15;;;;;;;16.65;100.00;99869.09;5046411;28;20025;-67
2023/08/01 00:43:10;;;;;;;12.30;3.58;;;;;;;16.63;100.00;99862.19;5047638;28;20152;-65
2023/08/01 00:45:35;;;;;;;10.93;3.70;;;;;;;16.63;100.00;99860.41;5046302;28;20029;-64
2023/08/01 00:48:00;;;;;;;9.60;3.42;;;;;;;16.60;100.00;99857.09;5045803;28;20104;-69
2023/08/01 00:50:26;;;;;;;11.70;3.30;;;;;;;16.63;100.00;99862.19;5028932;28;20040;-66
2023/08/01 00:52:52;;;;;;;10.50;3.65;;;;;;;16.59;100.00;99866.91;5045730;28;20024;-66
2023/08/01 00:55:18;;;;;;;16.27;3.95;;;;;;;16.56;100.00;99861.81;5045755;28;20574;-66
2023/08/01 00:57:43;;;;;;;14.88;3.63;;;;;;;16.56;100.00;99856.50;5045105;28;20107;-67
2023/08/01 01:00:09;;;;;;;12.88;3.38;;;;;;;16.57;100.00;99860.84;5045215;28;20115;-66
2023/08/01 01:02:35;;;;;;;14.02;3.67;;;;;;;16.51;100.00;99856.00;5046348;28;20040;-66
2023/08/01 01:05:02;;;;;;;14.82;4.10;;;;;;;16.45;100.00;99854.66;5046120;28;20102;-66
2023/08/01 01:07:28;;;;;;;12.98;4.20;;;;;;;16.44;100.00;99857.41;5048187;28;20531;-67
2023/08/01 01:09:53;;;;;;;11.82;4.13;;;;;;;16.41;100.00;99861.16;5051050;28;20045;-67
2023/08/01 01:12:18;;;;;;;7.60;3.75;;;;;;;16.45;100.00;99851.13;5050937;28;20060;-67
2023/08/01 01:14:44;;;;;;;12.55;3.70;;;;;;;16.44;100.00;99855.63;5050925;28;20056;-63
2023/08/01 01:17:09;;;;;;;12.63;4.03;;;;;;;16.42;100.00;99853.06;5049731;28;20036;-67
2023/08/01 01:19:34;;;;;;;17.30;4.25;;;;;;;16.50;100.00;99851.66;5051545;28;20104;-67
2023/08/01 01:22:00;;;;;;;10.02;4.10;;;;;;;16.57;100.00;99852.88;5050508;28;20025;-67
2023/08/01 01:24:26;;;;;;;8.38;3.90;;;;;;;16.67;100.00;99843.25;5050743;28;20017;-64
2023/08/01 01:26:51;;;;;;;15.30;3.90;;;;;;;16.73;100.00;99846.38;5051339;28;20033;-67
2023/08/01 01:29:17;;;;;;;12.25;4.18;;;;;;;16.79;100.00;99851.25;5049548;28;20025;-68
2023/08/01 01:31:43;;;;;;;14.18;4.45;;;;;;;16.83;100.00;99849.22;5050001;28;20029;-67
2023/08/01 01:34:08;;;;;;;14.68;4.88;;;;;;;16.86;100.00;99841.81;5048519;28;20040;-67
2023/08/01 01:36:34;;;;;;;13.15;4.25;;;;;;;16.81;100.00;99838.69;5048400;28;20029;-66
2023/08/01 01:38:59;;;;;;;10.43;3.65;;;;;;;16.84;100.00;99841.13;5049013;28;20424;-63
2023/08/01 01:41:25;;;;;;;15.05;4.43;;;;;;;16.79;100.00;99837.94;5048881;28;20021;-67
2023/08/01 01:43:50;;;;;;;11.77;3.92;;;;;;;16.75;100.00;99839.16;5049455;28;20120;-67
2023/08/01 01:46:16;;;;;;;13.80;3.95;;;;;;;16.76;100.00;99840.84;5050006;28;20021;-68
2023/08/01 01:48:42;;;;;;;12.43;3.80;;;;;;;16.76;100.00;99841.69;5048875;28;20131;-67
2023/08/01 01:51:07;;;;;;;17.15;4.03;;;;;;;16.83;100.00;99834.09;5049319;28;20032;-67
2023/08/01 01:53:33;;;;;;;13.63;3.95;;;;;;;16.92;100.00;99837.88;5048420;28;20029;-68
2023/08/01 01:55:58;;;;;;;15.38;3.45;;;;;;;17.00;100.00;99842.56;5049524;28;20051;-65
2023/08/01 01:58:23;;;;;;;13.23;3.95;;;;;;;17.08;100.00;99834.91;5048360;28;20036;-66
2023/08/01 02:00:49;;;;;;;13.55;3.67;;;;;;;17.08;100.00;99829.56;5049149;28;20020;-66
2023/08/01 02:03:14;;;;;;;10.10;3.17;;;;;;;17.18;100.00;99835.88;5048813;28;20485;-67
2023/08/01 02:05:40;;;;;;;12.73;3.58;;;;;;;17.18;100.00;99841.19;5048729;28;20448;-64
2023/08/01 02:08:06;;;;;;;11.55;3.40;;;;;;;17.25;100.00;99830.06;5047784;28;20191;-64
2023/08/01 02:10:31;;;;;;;12.65;4.10;;;;;;;17.23;100.00;99837.31;5048943;28;20517;-68
2023/08/01 02:12:57;;;;;;;12.68;3.55;;;;;;;17.25;100.00;99830.06;5048345;28;20036;-66
2023/08/01 02:15:22;;;;;;;15.23;3.72;;;;;;;17.22;100.00;99831.13;5048411;28;20013;-61
2023/08/01 02:17:47;;;;;;;13.05;4.13;;;;;;;17.25;100.00;99824.75;5048873;28;20039;-66
2023/08/01 02:20:13;;;;;;;13.52;3.92;;;;;;;17.30;100.00;99817.22;5049284;28;20104;-68
2023/08/01 02:22:38;;;;;;;12.43;3.30;;;;;;;17.34;100.00;99825.84;5047531;28;20027;-68
2023/08/01 02:25:04;;;;;;;12.30;3.97;;;;;;;17.35;100.00;99820.41;5048493;28;20020;-67
2023/08/01 02:27:29;;;;;;;15.77;4.25;;;;;;;17.31;100.00;99826.94;5048935;28;20071;-67
2023/08/01 02:29:55;;;;;;;11.75;3.92;;;;;;;17.32;100.00;99827.75;5048229;28;20556;-63
2023/08/01 02:32:20;;;;;;;10.52;3.70;;;;;;;17.38;100.00;99820.16;5048953;28;20025;-66
2023/08/01 02:34:45;;;;;;;16.13;4.10;;;;;;;17.39;100.00;99832.50;5046727;28;20031;-68
2023/08/01 02:37:11;;;;;;;16.50;4.60;;;;;;;17.35;100.00;99824.84;5048146;28;20025;-66
2023/08/01 02:39:36;;;;;;;10.57;3.78;;;;;;;17.46;100.00;99822.19;5048249;28;20025;-64
2023/08/01 02:42:02;;;;;;;14.90;4.88;;;;;;;17.51;100.00;99821.81;5048520;28;20049;-67
2023/08/01 02:44:28;;;;;;;11.43;4.05;;;;;;;17.55;100.00;99825.97;5048056;28;20543;-68
2023/08/01 02:46:53;;;;;;;9.80;3.70;;;;;;;17.50;100.00;99820.13;5048767;28;20047;-66
2023/08/01 02:49:19;;;;;;;18.25;4.35;;;;;;;17.53;100.00;99822.56;5048369;28;20473;-68
2023/08/01 02:51:44;;;;;;;19.63;5.10;;;;;;;17.51;100.00;99820.00;5047830;28;20552;-68
2023/08/01 02:54:09;;;;;;;16.23;4.20;;;;;;;17.51;100.00;99824.47;5048011;28;20385;-62
2023/08/01 02:56:37;;;;;;;14.15;4.55;;;;;;;17.48;100.00;99827.38;5047050;28;20109;-67
2023/08/01 02:59:04;;;;;;;12.38;4.40;;;;;;;17.48;100.00;99832.72;5048545;28;20594;-67
2023/08/01 03:01:30;;;;;;;18.90;5.15;;;;;;;17.46;100.00;99830.16;5047686;28;20066;-66
2023/08/01 03:03:55;;;;;;;19.63;4.50;;;;;;;17.46;100.00;99832.00;5048155;28;20025;-68
2023/08/01 03:06:21;;;;;;;14.93;4.35;;;;;;;17.48;100.00;99833.56;5046559;28;20029;-65
2023/08/01 03:08:47;;;;;;;18.02;4.60;;;;;;;17.45;100.00;99823.16;5047208;28;20040;-69
2023/08/01 03:11:12;;;;;;;14.68;4.00;;;;;;;17.42;100.00;99826.91;5047297;28;20037;-65
2023/08/01 03:13:38;;;;;;;11.18;4.30;;;;;;;17.41;100.00;99830.56;5047061;28;20082;-67
2023/08/01 03:16:04;;;;;;;13.65;4.55;;;;;;;17.32;100.00;99825.09;5047389;28;20074;-62
2023/08/01 03:18:29;;;;;;;15.02;4.45;;;;;;;17.23;100.00;99838.19;5048136;28;20408;-66
2023/08/01 03:20:55;;;;;;;15.20;4.93;;;;;;;17.28;100.00;99829.84;5047943;28;20025;-68
2023/08/01 03:23:20;;;;;;;14.15;4.50;;;;;;;17.30;100.00;99834.06;5047044;28;20029;-65
2023/08/01 03:25:45;;;;;;;16.52;4.50;;;;;;;17.29;100.00;99836.84;5047851;28;20044;-68
2023/08/01 03:28:11;;;;;;;12.15;4.70;;;;;;;17.31;100.00;99837.59;5046141;28;20519;-67
2023/08/01 03:30:36;;;;;;;10.15;4.47;;;;;;;17.28;100.00;99843.16;5047656;28;20036;-66
2023/08/01 03:33:02;;;;;;;18.90;4.90;;;;;;;17.31;100.00;99834.91;5046765;28;20033;-65
2023/08/01 03:35:28;;;;;;;14.88;4.68;;;;;;;17.34;100.00;99839.97;5048126;28;20032;-67
2023/08/01 03:37:53;;;;;;;17.95;5.07;;;;;;;17.26;100.00;99839.75;5046757;28;20405;-63
2023/08/01 03:40:19;;;;;;;14.68;4.30;;;;;;;17.29;100.00;99844.81;5047646;28;20469;-66
2023/08/01 03:42:45;;;;;;;14.25;5.25;;;;;;;17.31;100.00;99840.25;5046214;28;20029;-67
2023/08/01 03:45:10;;;;;;;15.50;4.90;;;;;;;17.29;100.00;99843.03;5047820;28;20021;-67
2023/08/01 03:47:35;;;;;;;20.35;5.30;;;;;;;17.32;100.00;99844.59;5047985;28;20493;-64
2023/08/01 03:50:01;;;;;;;18.75;4.63;;;;;;;17.34;100.00;99839.16;5046751;28;20444;-68
2023/08/01 03:52:26;;;;;;;15.55;4.95;;;;;;;17.35;100.00;99840.84;5046592;28;20477;-68
2023/08/01 03:54:55;;;;;;;15.35;4.60;;;;;;;17.38;100.00;99846.78;5048247;28;20033;-64
2023/08/01 03:57:20;;;;;;;13.80;4.97;;;;;;;17.36;100.00;99850.50;5048278;28;20404;-66
2023/08/01 03:59:46;;;;;;;18.33;5.03;;;;;;;17.45;100.00;99846.31;5047192;28;20025;-70
2023/08/01 04:02:11;;;;;;;20.88;5.40;;;;;;;17.41;100.00;99851.88;5047419;28;20059;-62
2023/08/01 04:04:37;;;;;;;14.02;4.40;;;;;;;17.39;100.00;99847.59;5046684;28;20031;-66
2023/08/01 04:07:02;;;;;;;15.88;4.20;;;;;;;17.34;100.00;99849.81;5046899;28;20044;-67
2023/08/01 04:09:27;;;;;;;23.27;4.72;;;;;;;17.23;100.00;99842.66;5046883;28;20132;-66
2023/08/01 04:11:53;;;;;;;16.10;4.97;;;;;;;17.24;100.00;99847.84;5047403;28;20477;-62
2023/08/01 04:14:18;;;;;;;14.43;4.95;;;;;;;17.25;100.00;99843.38;5042026;28;20088;-66
2023/08/01 04:16:44;;;;;;;14.80;5.18;;;;;;;17.30;100.00;99846.50;5032600;28;20014;-67
2023/08/01 04:19:09;;;;;;;18.30;5.18;;;;;;;17.19;100.00;99842.06;5039239;28;20025;-65
2023/08/01 04:21:35;;;;;;;21.65;4.95;;;;;;;17.26;100.00;99845.94;5035891;28;20090;-64
2023/08/01 04:24:00;;;;;;;15.55;3.97;;;;;;;17.17;100.00;99839.50;5037863;28;20025;-67
2023/08/01 04:26:26;;;;;;;14.43;4.43;;;;;;;17.15;100.00;99844.09;5040597;28;20025;-68
2023/08/01 04:28:51;;;;;;;16.00;4.55;;;;;;;17.20;100.00;99851.72;5047785;28;20040;-65
2023/08/01 04:31:16;;;;;;;17.55;3.97;;;;;;;17.09;100.00;99849.88;5046657;28;20072;-65
2023/08/01 04:33:43;;;;;;;11.15;4.00;;;;;;;17.18;100.00;99841.19;5045565;28;20041;-66
2023/08/01 04:36:08;;;;;;;20.20;4.32;;;;;;;17.20;100.00;99842.88;5047106;28;20388;-67
2023/08/01 04:38:33;;;;;;;13.95;4.05;;;;;;;17.23;100.00;99847.97;5046469;28;20025;-63
2023/08/01 04:41:00;;;;;;;11.55;3.42;;;;;;;17.22;100.00;99838.28;5039395;28;20053;-64
2023/08/01 04:43:25;;;;;;;12.07;3.80;;;;;;;17.14;100.00;99845.06;5048245;28;20025;-68
2023/08/01 04:45:50;;;;;;;11.75;3.67;;;;;;;17.12;100.00;99847.00;5049958;28;20378;-63
2023/08/01 04:48:16;;;;;;;7.57;2.95;;;;;;;17.11;100.00;99839.97;5049183;28;20020;-63
2023/08/01 04:50:41;;;;;;;9.80;3.17;;;;;;;17.10;100.00;99851.56;5049724;28;20583;-67
2023/08/01 04:53:06;;;;;;;11.73;3.35;;;;;;;17.18;100.00;99851.84;5048885;28;20124;-68
2023/08/01 04:55:32;;;;;;;11.65;3.35;;;;;;;17.19;100.00;99852.69;5049113;28;20031;-69
2023/08/01 04:57:57;;;;;;;10.82;3.08;;;;;;;17.12;100.00;99841.66;5049384;28;20021;-69
2023/08/01 05:00:23;;;;;;;9.35;3.00;;;;;;;17.25;100.00;99854.03;5049548;28;20021;-62
2023/08/01 05:02:48;;;;;;;11.18;3.03;;;;;;;17.23;100.00;99861.28;5049360;28;20048;-70
2023/08/01 05:05:15;;;;;;;12.73;3.45;;;;;;;17.31;100.00;99856.22;5049280;28;20024;-66
2023/08/01 05:07:41;;;;;;;11.00;3.72;;;;;;;17.31;100.00;99856.22;5048344;28;20027;-67
2023/08/01 05:10:06;;;;;;;9.88;3.20;;;;;;;17.35;100.00;99848.81;5047323;28;20127;-68
2023/08/01 05:12:32;;;;;;;13.48;3.17;;;;;;;17.26;100.00;99861.91;5049099;28;20021;-66
2023/08/01 05:14:57;;;;;;;10.85;3.72;;;;;;;17.34;100.00;99853.28;5049003;28;20086;-66
2023/08/01 05:17:23;;;;;;;11.68;3.10;;;;;;;17.34;100.00;99853.28;5047987;28;20028;-66
2023/08/01 05:19:48;;;;;;;11.18;3.55;;;;;;;17.26;100.00;99853.06;5049543;28;20068;-69
2023/08/01 05:22:13;;;;;;;8.85;3.38;;;;;;;17.24;100.00;99855.84;5048384;28;20025;-65
2023/08/01 05:24:39;;;;;;;9.88;3.38;;;;;;;17.15;100.00;99861.88;5034835;28;20025;-67
2023/08/01 05:27:04;;;;;;;12.48;3.08;;;;;;;17.10;100.00;99848.09;5047898;28;20086;-67
2023/08/01 05:29:30;;;;;;;13.85;3.42;;;;;;;17.11;100.00;99852.44;5030222;28;20037;-64
2023/08/01 05:31:55;;;;;;;8.02;3.10;;;;;;;17.16;100.00;99852.94;5040389;28;20512;-70
2023/08/01 05:34:20;;;;;;;12.07;3.20;;;;;;;17.21;100.00;99856.06;5048046;28;20021;-68
2023/08/01 05:36:46;;;;;;;12.85;3.67;;;;;;;17.23;100.00;99862.13;5047794;28;20029;-68
2023/08/01 05:39:11;;;;;;;17.05;3.25;;;;;;;17.14;100.00;99866.38;5048325;28;20259;-61
2023/08/01 05:41:37;;;;;;;11.38;3.13;;;;;;;17.17;100.00;99866.13;5048514;28;20028;-65
2023/08/01 05:44:02;;;;;;;8.68;2.40;;;;;;;17.29;100.00;99871.44;5048577;28;20047;-68
2023/08/01 05:46:27;;;;;;;12.70;2.78;;;;;;;17.41;100.00;99862.50;5047837;28;20486;-68
2023/08/01 05:48:53;;;;;;;10.02;3.65;;;;;;;17.49;100.00;99875.19;5048654;28;20082;-66
2023/08/01 05:51:18;;;;;;;9.88;2.80;;;;;;;17.46;100.00;99874.63;5047743;28;20485;-66
2023/08/01 05:53:43;;;;;;;9.10;3.28;;;;;;;17.57;100.00;99882.59;5048432;28;20029;-68
2023/08/01 05:56:09;;;;;;;9.00;3.20;;;;;;;17.59;100.00;99883.34;5048092;28;20068;-64
2023/08/01 05:58:34;;;;;;;9.48;2.67;;;;;;;17.68;100.00;99884.41;5048288;28;20521;-66
2023/08/01 06:01:00;;;;;;;9.13;2.95;;;;;;;17.61;100.00;99878.72;5046730;28;20124;-68
2023/08/01 06:03:25;;;;;;;14.30;3.90;;;;;;;17.76;100.00;99881.16;5046632;28;20025;-66
2023/08/01 06:05:50;;;;;;;14.27;2.97;;;;;;;17.84;100.00;99884.03;5032278;28;20029;-68
2023/08/01 06:08:16;;;;;;;11.13;2.92;;;;;;;17.94;100.00;99874.31;5027713;28;20040;-67
2023/08/01 06:10:41;;;;;;;11.30;3.03;;;;;;;18.04;100.00;99878.91;5030557;28;20510;-66
2023/08/01 06:13:07;;;;;;;11.88;3.40;;;;;;;18.11;100.00;99882.81;5041082;28;20032;-68
2023/08/01 06:15:33;;;;;;;11.00;3.00;;;;;;;18.16;100.00;99887.78;5027586;28;20113;-67
2023/08/01 06:17:58;;;;;;;13.38;3.17;;;;;;;18.28;100.00;99885.91;5028084;28;20032;-67
2023/08/01 06:20:23;;;;;;;8.32;2.83;;;;;;;18.43;100.00;99889.97;5027913;28;20512;-66
2023/08/01 06:22:49;;;;;;;10.25;2.55;;;;;;;18.66;100.00;99889.88;5027256;28;20079;-68
2023/08/01 06:25:14;;;;;;;11.23;3.00;;;;;;;18.64;100.00;99912.34;5028095;28;20032;-66
2023/08/01 06:27:39;;;;;;;9.10;2.75;;;;;;;18.69;100.00;99889.63;5027917;28;20052;-69
2023/08/01 06:30:05;;;;;;;11.32;2.78;;;;;;;18.71;100.00;99902.00;5045462;28;20025;-66
2023/08/01 06:32:31;;;;;;;10.05;2.92;;;;;;;18.67;100.00;99890.75;5048129;28;20108;-68
2023/08/01 06:34:56;;;;;;;12.55;3.17;;;;;;;18.43;100.00;99889.97;5047883;28;20108;-65
2023/08/01 06:37:21;;;;;;;11.90;3.25;;;;;;;18.35;100.00;99918.25;5046829;28;20029;-73
2023/08/01 06:39:47;;;;;;;18.95;3.45;;;;;;;17.86;100.00;99923.88;5048164;28;20055;-63
2023/08/01 06:42:12;;;;;;;12.77;3.25;;;;;;;17.26;100.00;99906.28;5047492;28;20029;-72
2023/08/01 06:44:38;;;;;;;13.38;3.20;;;;;;;16.99;100.00;99913.59;5047753;28;20032;-79
2023/08/01 06:47:03;;;;;;;11.98;3.30;;;;;;;16.92;100.00;99910.53;5046843;28;20068;-80
2023/08/01 06:49:29;;;;;;;22.38;3.65;;;;;;;16.82;100.00;99914.03;5047174;28;20465;-74
2023/08/01 06:51:54;;;;;;;16.35;4.10;;;;;;;16.92;100.00;99915.03;5045979;28;20100;-78
2023/08/01 06:54:19;;;;;;;14.05;3.47;;;;;;;16.93;100.00;99914.06;5046535;28;20055;-77
2023/08/01 06:56:47;;;;;;;11.40;3.15;;;;;;;17.14;100.00;99916.06;5045663;28;20087;-73
2023/08/01 06:59:15;;;;;;;10.27;3.42;;;;;;;17.34;100.00;99914.53;5047070;28;20492;-72
2023/08/01 07:01:43;;;;;;;14.90;4.00;;;;;;;17.49;100.00;99924.97;5045459;28;20041;-67
2023/08/01 07:04:11;;;;;;;16.33;3.38;;;;;;;17.59;100.00;99928.59;5046916;28;20098;-74
2023/08/01 07:06:37;;;;;;;14.15;3.50;;;;;;;17.68;100.00;99919.03;5045546;28;20421;-74
2023/08/01 07:09:02;;;;;;;11.15;3.13;;;;;;;17.77;100.00;99934.31;5047443;28;20072;-74
2023/08/01 07:11:27;;;;;;;8.80;2.65;;;;;;;17.91;100.00;99935.03;5047123;28;20120;-65
2023/08/01 07:13:53;;;;;;;8.80;3.15;;;;;;;17.87;100.00;99931.75;5046451;28;20107;-69
2023/08/01 07:16:18;;;;;;;10.48;2.47;;;;;;;17.85;100.00;99933.69;5047928;28;20108;-77
2023/08/01 07:18:43;;;;;;;11.05;2.97;;;;;;;17.93;100.00;99935.75;5045494;28;20477;-72
2023/08/01 07:21:09;;;;;;;8.30;2.85;;;;;;;17.91;100.00;99937.69;5046496;28;20036;-73
2023/08/01 07:23:35;;;;;;;10.25;2.70;;;;;;;17.92;100.00;99932.25;5046375;28;20124;-65
2023/08/01 07:26:00;;;;;;;10.50;3.20;;;;;;;17.88;100.00;99938.78;5045904;28;20025;-75
2023/08/01 07:28:26;;;;;;;10.25;2.60;;;;;;;17.88;100.00;99940.59;5046874;28;20043;-71
2023/08/01 07:30:58;;;;;;;15.57;2.63;;;;;;;17.95;100.00;99944.47;5046091;28;20029;-66
2023/08/01 07:33:24;;;;;;;10.70;2.90;;;;;;;18.19;100.00;99939.00;5046668;28;20021;-73
2023/08/01 07:35:49;;;;;;;5.95;2.47;;;;;;;18.35;100.00;99943.09;5045359;28;20071;-69
2023/08/01 07:38:14;;;;;;;9.65;2.60;;;;;;;18.69;100.00;99956.34;5047099;28;20032;-70
2023/08/01 07:40:40;;;;;;;5.72;2.20;;;;;;;18.76;100.00;99943.34;5045205;28;20013;-73
2023/08/01 07:43:05;;;;;;;11.85;2.47;;;;;;;18.72;100.00;99957.06;5046396;28;20037;-69
2023/08/01 07:45:34;;;;;;;14.70;2.50;;;;;;;18.64;100.00;99947.88;5046447;28;20092;-72
2023/08/01 07:47:59;;;;;;;8.20;2.30;;;;;;;18.96;100.00;99946.16;5045088;28;20477;-72
2023/08/01 07:50:25;;;;;;;8.00;2.22;;;;;;;19.19;100.00;99944.25;5045095;28;20051;-71
2023/08/01 07:52:51;;;;;;;9.15;2.33;;;;;;;19.32;100.00;99948.53;5045400;28;20029;-65
2023/08/01 07:55:18;;;;;;;16.50;3.17;;;;;;;19.34;100.00;99940.41;5045218;28;20031;-71
2023/08/01 07:57:43;;;;;;;10.88;2.83;;;;;;;19.29;100.00;99949.66;5045809;28;20591;-70
2023/08/01 08:00:11;;;;;;;11.23;2.58;;;;;;;19.35;100.00;99958.97;5043803;28;20036;-70
2023/08/01 08:02:37;;;;;;;9.33;2.50;;;;;;;19.48;100.00;99964.13;5046745;28;20554;-71
2023/08/01 08:05:02;;;;;;;8.38;2.65;;;;;;;19.52;100.00;99949.50;5046553;28;20021;-68
2023/08/01 08:07:27;;;;;;;9.00;2.60;;;;;;;19.43;100.00;99945.81;5045242;28;20024;-70
2023/08/01 08:09:54;;;;;;;7.85;2.22;;;;;;;19.39;100.00;99955.03;5046459;28;20052;-68
2023/08/01 08:12:20;;;;;;;7.60;1.92;;;;;;;19.26;100.00;99973.13;5046585;28;20067;-68
2023/08/01 08:14:46;;;;;;;5.75;1.90;;;;;;;19.40;100.00;99972.78;5034946;28;20033;-69
2023/08/01 08:17:11;;;;;;;6.97;2.28;;;;;;;19.41;100.00;99963.78;5050464;28;20833;-74
2023/08/01 08:19:37;;;;;;;10.07;2.20;;;;;;;19.42;100.00;99960.13;5031547;28;20036;-73
2023/08/01 08:22:03;;;;;;;9.77;2.30;;;;;;;19.43;100.00;99977.88;5029547;28;20017;-68
2023/08/01 08:24:28;;;;;;;7.63;2.28;;;;;;;19.38;100.00;99985.41;5048180;28;20021;-68
2023/08/01 08:26:54;;;;;;;7.97;2.38;;;;;;;19.41;100.00;99981.63;5047988;28;20025;-71
2023/08/01 08:29:19;;;;;;;11.43;2.35;;;;;;;19.53;100.00;99977.91;5038918;28;20101;-70
2023/08/01 08:31:44;;;;;;;12.45;2.67;;;;;;;19.62;100.00;99970.09;5048622;28;20053;-67
2023/08/01 08:34:10;;;;;;;11.30;2.90;;;;;;;19.66;100.00;99980.38;5048397;28;20013;-73
2023/08/01 08:36:35;;;;;;;17.05;3.00;;;;;;;19.68;100.00;99977.56;5048377;28;20087;-68
2023/08/01 08:39:00;;;;;;;8.23;2.50;;;;;;;19.50;100.00;99991.53;5041986;28;20029;-72
2023/08/01 08:41:26;;;;;;;9.07;2.55;;;;;;;19.49;100.00;99999.66;5043983;28;20111;-71
2023/08/01 08:43:55;;;;;;;7.28;2.33;;;;;;;19.20;100.00;99982.47;5048574;28;20025;-67
2023/08/01 08:46:21;;;;;;;;;;;;;;;19.21;100.00;99983.31;5050520;28;20025;-64
2023/08/01 08:48:46;;;;;;;11.32;2.85;;;;;;;18.98;100.00;99984.25;5047007;28;19919;-70
2023/08/01 08:51:12;;;;;;;14.30;3.22;;;;;;;18.90;100.00;100000.91;5027452;28;21376;-70
2023/08/01 08:53:38;;;;;;;14.50;3.53;;;;;;;18.84;100.00;99992.56;5026097;28;20028;-68
2023/08/01 08:56:03;;;;;;;6.65;2.25;;;;;;;18.68;100.00;99989.34;5048456;28;20052;-65
2023/08/01 08:58:31;;;;;;;8.73;2.65;;;;;;;18.63;100.00;99998.69;5049561;28;20128;-68
2023/08/01 09:00:57;;;;;;;10.13;2.40;;;;;;;18.94;100.00;99977.47;5041267;28;20034;-68
2023/08/01 09:03:22;;;;;;;11.52;2.75;;;;;;;19.21;100.00;100002.88;5027979;28;20067;-70
2023/08/01 09:05:54;;;;;;;11.18;2.55;;;;;;;19.49;100.00;100007.69;5043101;28;20033;-70
2023/08/01 09:08:21;;;;;;;12.48;2.60;;;;;;;19.68;100.00;100010.47;5036944;28;20068;-70
2023/08/01 09:10:47;;;;;;;9.45;2.90;;;;;;;19.89;100.00;99990.88;5047286;28;20365;-69
2023/08/01 09:13:13;;;;;;;10.38;2.42;;;;;;;20.01;100.00;99998.84;5038086;28;20492;-67
2023/08/01 09:15:41;;;;;;;7.40;2.63;;;;;;;19.90;100.00;99994.41;5031823;28;20029;-66
2023/08/01 09:18:07;;;;;;;13.40;2.63;;;;;;;19.55;100.00;99996.47;5041115;28;20108;-69
2023/08/01 09:20:46;;;;;;;11.73;2.95;;;;;;;19.57;100.00;99994.53;5038622;28;20104;-63
2023/08/01 09:23:12;;;;;;;12.07;2.72;;;;;;;19.94;100.00;99995.84;5044240;28;20033;-64
2023/08/01 09:25:38;;;;;;;7.68;2.50;;;;;;;20.20;100.00;99995.41;5039323;28;20233;-67
2023/08/01 09:28:18;;;;;;;5.95;2.28;;;;;;;20.24;100.00;100001.31;5038625;28;20032;-67
2023/08/01 09:30:54;;;;;;;11.93;2.63;;;;;;;20.21;100.00;100023.84;5038070;28;20029;-66
2023/08/01 09:33:19;;;;;;;7.20;2.30;;;;;;;19.95;100.00;100019.75;5036917;28;20512;-64
2023/08/01 09:35:45;;;;;;;8.90;2.85;;;;;;;19.73;100.00;99996.72;5035837;28;20057;-68
2023/08/01 09:38:15;;;;;;;6.90;2.95;;;;;;;19.76;100.00;100004.47;5039329;28;20093;-70
2023/08/01 09:40:41;;;;;;;11.07;2.20;;;;;;;19.95;100.00;100011.75;5047910;28;20060;-70
2023/08/01 09:43:06;;;;;;;10.52;2.22;;;;;;;20.19;100.00;100009.75;5043689;28;20028;-69
2023/08/01 09:45:34;;;;;;;10.98;2.53;;;;;;;20.43;100.00;100020.09;5047185;28;20021;-69
2023/08/01 09:48:00;;;;;;;8.27;2.38;;;;;;;20.43;100.00;100027.28;5039437;28;20043;-69
2023/08/01 09:50:25;;;;;;;8.57;2.40;;;;;;;20.38;100.00;100035.72;5044398;28;20128;-59
2023/08/01 09:52:53;;;;;;;7.88;2.10;;;;;;;20.34;100.00;100034.28;5049095;28;20096;-69
2023/08/01 09:55:27;;;;;;;8.85;2.65;;;;;;;20.28;100.00;100032.16;5048753;28;20376;-68
2023/08/01 09:57:57;;;;;;;8.80;2.42;;;;;;;20.26;100.00;100037.63;5047611;28;20025;-66
2023/08/01 10:00:25;;;;;;;5.88;2.10;;;;;;;20.38;100.00;100035.72;5048849;28;20378;-63
2023/08/01 10:02:53;;;;;;;9.20;2.72;;;;;;;20.44;100.00;100034.34;5049931;28;20027;-68
2023/08/01 10:05:19;;;;;;;11.35;2.88;;;;;;;20.25;100.00;100035.09;5049970;28;20017;-65
2023/08/01 10:07:44;;;;;;;13.05;2.22;;;;;;;20.32;100.00;100038.97;5048146;28;20511;-64
2023/08/01 10:10:10;;;;;;;14.32;2.53;;;;;;;20.38;100.00;100045.59;5047913;28;20037;-66
2023/08/01 10:12:36;;;;;;;10.93;2.42;;;;;;;20.25;100.00;100048.47;5032133;28;20044;-70
2023/08/01 10:15:03;;;;;;;8.30;2.13;;;;;;;20.19;100.00;100034.69;5049079;28;20028;-67
2023/08/01 10:17:29;;;;;;;12.32;2.35;;;;;;;20.34;100.00;100047.66;5049229;28;20021;-67
2023/08/01 10:19:56;;;;;;;10.90;2.33;;;;;;;20.29;100.00;100042.72;5047572;28;20021;-68
2023/08/01 10:22:21;;;;;;;12.18;2.72;;;;;;;20.40;100.00;100052.47;5048149;28;20036;-67
2023/08/01 10:24:48;;;;;;;6.07;2.22;;;;;;;20.28;100.00;100053.56;5038658;28;20025;-68
2023/08/01 10:27:15;;;;;;;9.55;2.20;;;;;;;20.60;100.00;100038.31;5045379;28;20362;-68
2023/08/01 10:29:41;;;;;;;7.85;2.00;;;;;;;20.59;100.00;100064.25;5038497;28;20100;-67
2023/08/01 10:32:07;;;;;;;6.57;2.17;;;;;;;20.46;100.00;100045.75;5038396;28;20535;-68
2023/08/01 10:34:33;;;;;;;12.05;2.28;;;;;;;20.53;100.00;100048.72;5041682;28;20033;-68
2023/08/01 10:36:59;;;;;;;12.75;2.22;;;;;;;20.79;100.00;100053.56;5036017;28;20030;-67
2023/08/01 10:39:26;;;;;;;9.00;1.90;;;;;;;20.83;100.00;100061.19;5036585;28;20039;-68
2023/08/01 10:42:02;;;;;;;8.63;2.33;;;;;;;20.82;100.00;100090.75;5035040;28;20116;-65
2023/08/01 10:44:30;;;;;;;8.90;2.03;;;;;;;20.55;100.00;100068.16;5039781;28;20033;-68
2023/08/01 10:46:56;;;;;;;12.75;2.45;;;;;;;20.45;100.00;100063.63;5040978;28;20465;-70
2023/08/01 10:49:39;;;;;;;6.80;1.90;;;;;;;20.17;100.00;100089.28;5042539;28;20029;-65
2023/08/01 10:52:28;;;;;;;7.07;2.50;;;;;;;19.90;100.00;100075.44;5041573;28;20477;-68
2023/08/01 10:54:59;;;;;;;10.75;2.55;;;;;;;19.83;100.00;100074.28;5041393;28;20061;-66
2023/08/01 10:57:26;;;;;;;7.65;2.17;;;;;;;19.94;100.00;100066.22;5039998;28;20052;-68
2023/08/01 10:59:51;;;;;;;7.72;2.20;;;;;;;20.00;100.00;100061.28;5043046;28;20446;-68
2023/08/01 11:02:22;;;;;;;7.18;2.60;;;;;;;20.38;100.00;100069.66;5045299;28;20096;-67
2023/08/01 11:04:57;;;;;;;13.07;2.28;;;;;;;20.64;100.00;100066.47;5040752;28;20025;-66
2023/08/01 11:07:23;;;;;;;11.63;2.85;;;;;;;21.21;100.00;100071.25;5036085;28;20700;-60
2023/08/01 11:09:48;;;;;;;10.35;2.13;;;;;;;21.40;100.00;100118.63;5037981;28;20052;-69
2023/08/01 11:12:14;;;;;;;11.23;2.60;;;;;;;21.41;100.00;100069.44;5040651;28;20040;-63
2023/08/01 11:14:39;;;;;;;10.40;2.13;;;;;;;21.16;100.00;100081.56;5030073;28;20032;-67